createdAt,value
2022-09-20T00:01:13.207Z,50.20
2022-09-20T00:03:42.874Z,50.01
2022-09-20T00:06:14.651Z,50.53
2022-09-20T00:08:41.818Z,50.43
2022-09-20T00:11:11.391Z,49.64
2022-09-20T00:13:39.601Z,49.12
2022-09-20T00:16:08.928Z,48.54
2022-09-20T00:18:36.154Z,48.68
2022-09-20T00:21:05.172Z,49.21
2022-09-20T00:23:32.149Z,48.90
2022-09-20T00:26:01.255Z,49.40
2022-09-20T00:28:29.096Z,48.95
2022-09-20T00:30:56.505Z,48.98
2022-09-20T00:33:25.085Z,48.39
2022-09-20T00:35:51.704Z,49.02
2022-09-20T00:38:18.309Z,48.28
2022-09-20T00:40:45.337Z,48.32
2022-09-20T00:43:18.735Z,47.76
2022-09-20T00:45:49.449Z,47.02
2022-09-20T00:48:27.693Z,46.47
2022-09-20T00:51:08.965Z,46.66
2022-09-20T00:53:43.769Z,47.03
2022-09-20T00:56:19.645Z,46.93
2022-09-20T00:59:04.628Z,47.18
2022-09-20T01:01:32.145Z,47.55
2022-09-20T01:03:59.881Z,47.77
2022-09-20T01:06:26.778Z,47.92
2022-09-20T01:08:56.387Z,48.10
2022-09-20T01:11:23.034Z,48.50
2022-09-20T01:13:49.674Z,48.32
2022-09-20T01:16:18.029Z,48.89
2022-09-20T01:18:45.795Z,49.39
2022-09-20T01:21:13.501Z,49.69
2022-09-20T01:24:18.490Z,49.85
2022-09-20T01:27:10.832Z,49.93
2022-09-20T01:29:53.011Z,50.72
2022-09-20T01:32:23.924Z,50.39
2022-09-20T01:34:58.186Z,50.92
2022-09-20T01:37:28.041Z,51.06
2022-09-20T01:40:23.960Z,50.80
2022-09-20T01:43:13.889Z,51.07
2022-09-20T01:45:46.784Z,52.38
2022-09-20T01:48:37.723Z,52.37
2022-09-20T01:51:20.996Z,52.32
2022-09-20T01:53:50.493Z,52.22
2022-09-20T01:56:22.806Z,51.31
2022-09-20T01:59:22.767Z,51.49
2022-09-20T02:02:01.401Z,52.57
2022-09-20T02:04:49.669Z,52.66
2022-09-20T02:07:47.792Z,53.25
2022-09-20T02:10:35.887Z,53.01
2022-09-20T02:13:29.279Z,53.08
2022-09-20T02:16:17.084Z,53.35
2022-09-20T02:18:56.660Z,53.48
2022-09-20T02:21:42.314Z,53.72
2022-09-20T02:24:11.460Z,54.01
2022-09-20T02:27:02.745Z,54.50
2022-09-20T02:29:53.950Z,54.14
2022-09-20T02:32:45.297Z,54.95
2022-09-20T02:35:42.806Z,55.20
2022-09-20T02:38:18.329Z,55.30
2022-09-20T02:41:05.597Z,55.46
2022-09-20T02:43:51.758Z,55.71
2022-09-20T02:46:28.629Z,56.21
2022-09-20T02:49:44.906Z,56.57
2022-09-20T02:52:23.322Z,55.85
2022-09-20T02:55:16.871Z,56.70
2022-09-20T02:58:07.620Z,56.91
2022-09-20T03:00:48.450Z,56.12
2022-09-20T03:03:32.920Z,56.05
2022-09-20T03:06:38.732Z,55.31
2022-09-20T03:09:17.247Z,54.74
2022-09-20T03:11:57.083Z,55.94
2022-09-20T03:14:51.310Z,55.67
2022-09-20T03:17:27.497Z,55.45
2022-09-20T03:20:08.706Z,55.42
2022-09-20T03:22:58.281Z,55.10
2022-09-20T03:25:48.129Z,54.97
2022-09-20T03:28:28.245Z,54.82
2022-09-20T03:31:00.992Z,53.56
2022-09-20T03:33:39.487Z,53.83
2022-09-20T03:36:36.905Z,53.50
2022-09-20T03:39:31.271Z,52.51
2022-09-20T03:42:20.156Z,51.66
2022-09-20T03:45:00.967Z,50.65
2022-09-20T03:47:33.469Z,48.53
2022-09-20T03:50:28.887Z,48.44
2022-09-20T03:53:12.688Z,47.70
2022-09-20T03:55:59.706Z,46.81
2022-09-20T03:58:49.390Z,46.83
2022-09-20T04:01:18.821Z,46.61
2022-09-20T04:04:23.727Z,47.05
2022-09-20T04:07:02.345Z,46.71
2022-09-20T04:09:43.831Z,47.76
2022-09-20T04:12:28.394Z,48.43
2022-09-20T04:15:07.485Z,48.84
2022-09-20T04:17:57.213Z,49.24
2022-09-20T04:20:38.885Z,50.09
2022-09-20T04:23:36.092Z,50.67
2022-09-20T04:26:03.565Z,51.41
2022-09-20T04:28:32.977Z,51.27
2022-09-20T04:31:35.002Z,50.83
2022-09-20T04:34:04.920Z,51.13
2022-09-20T04:36:34.361Z,50.74
2022-09-20T04:39:22.613Z,50.53
2022-09-20T04:42:18.086Z,50.09
2022-09-20T04:45:09.382Z,49.07
2022-09-20T04:47:35.899Z,48.60
2022-09-20T04:50:20.798Z,48.34
2022-09-20T04:53:15.634Z,48.73
2022-09-20T04:55:56.135Z,49.31
2022-09-20T04:58:57.195Z,49.18
2022-09-20T05:01:35.998Z,48.94
2022-09-20T05:04:33.286Z,48.94
2022-09-20T05:07:30.427Z,49.51
2022-09-20T05:10:43.877Z,49.31
2022-09-20T05:13:35.221Z,49.52
2022-09-20T05:16:09.355Z,49.35
2022-09-20T05:18:54.508Z,49.54
2022-09-20T05:21:55.049Z,50.04
2022-09-20T05:24:56.535Z,50.65
2022-09-20T05:28:02.897Z,51.66
2022-09-20T05:30:45.642Z,53.03
2022-09-20T05:33:40.076Z,53.43
2022-09-20T05:36:13.818Z,54.86
2022-09-20T05:38:49.092Z,55.30
2022-09-20T05:41:18.995Z,55.45
2022-09-20T05:44:37.015Z,55.78
2022-09-20T05:47:34.849Z,54.86
2022-09-20T05:50:16.064Z,54.35
2022-09-20T05:52:54.509Z,53.70
2022-09-20T05:55:42.632Z,51.56
2022-09-20T05:58:46.996Z,48.96
2022-09-20T06:01:25.582Z,47.37
2022-09-20T06:04:08.872Z,43.94
2022-09-20T06:06:47.638Z,47.22
2022-09-20T06:09:20.240Z,46.75
2022-09-20T06:12:05.059Z,46.72
2022-09-20T06:14:31.608Z,47.99
2022-09-20T06:17:11.893Z,45.37
2022-09-20T06:19:49.477Z,47.21
2022-09-20T06:22:40.420Z,46.66
2022-09-20T06:25:10.047Z,47.56
2022-09-20T06:27:54.623Z,48.79
2022-09-20T06:30:26.510Z,46.55
2022-09-20T11:28:23.091Z,38.86
2022-09-20T11:31:04.344Z,39.04
2022-09-20T11:33:52.830Z,40.65
2022-09-20T11:36:39.379Z,39.35
2022-09-20T11:39:13.381Z,38.67
2022-09-20T11:41:40.920Z,38.10
2022-09-20T11:44:12.693Z,37.28
2022-09-20T11:46:52.344Z,37.82
2022-09-20T11:49:27.001Z,40.09
2022-09-20T11:52:13.680Z,42.15
2022-09-20T11:55:18.893Z,41.72
2022-09-20T11:57:46.754Z,41.29
2022-09-20T12:00:13.426Z,40.35
2022-09-20T12:02:54.010Z,40.02
2022-09-20T12:05:41.588Z,40.91
2022-09-20T12:08:21.989Z,42.83
2022-09-20T12:10:59.112Z,42.07
2022-09-20T12:13:27.785Z,41.92
2022-09-20T12:16:12.882Z,41.91
2022-09-20T12:18:48.280Z,42.09
2022-09-20T12:21:17.647Z,41.54
2022-09-20T12:23:53.627Z,41.73
2022-09-20T12:26:23.243Z,40.88
2022-09-20T12:29:01.271Z,39.64
2022-09-20T12:31:33.789Z,37.75
2022-09-20T12:34:09.995Z,37.57
2022-09-20T12:36:44.848Z,37.23
2022-09-20T12:39:11.249Z,37.19
2022-09-20T12:42:03.059Z,40.97
2022-09-20T12:44:37.748Z,39.76
2022-09-20T12:47:15.864Z,39.84
2022-09-20T12:50:04.112Z,38.53
2022-09-20T12:52:58.010Z,38.42
2022-09-20T12:55:30.312Z,40.37
2022-09-20T12:58:01.977Z,40.62
2022-09-20T13:00:34.484Z,38.81
2022-09-20T13:03:01.884Z,40.26
2022-09-20T13:05:38.194Z,39.54
2022-09-20T13:08:10.465Z,39.36
2022-09-20T13:10:45.044Z,37.89
2022-09-20T13:13:19.440Z,38.05
2022-09-20T13:15:52.394Z,37.79
2022-09-20T13:18:20.136Z,38.03
2022-09-20T13:20:47.048Z,37.55
2022-09-20T13:23:21.705Z,37.39
2022-09-20T13:25:49.717Z,37.73
2022-09-20T13:28:28.830Z,37.55
2022-09-20T13:31:20.356Z,37.71
2022-09-20T13:33:47.688Z,37.88
2022-09-20T13:36:14.680Z,39.66
2022-09-20T13:38:41.597Z,39.00
2022-09-20T13:41:12.949Z,38.23
2022-09-20T13:43:50.696Z,38.94
2022-09-20T13:46:29.196Z,38.71
2022-09-20T13:49:11.065Z,37.64
2022-09-20T13:51:37.627Z,37.26
2022-09-20T13:54:30.457Z,35.91
2022-09-20T13:57:01.688Z,36.55
2022-09-20T13:59:42.204Z,37.19
2022-09-20T14:02:24.014Z,36.65
2022-09-20T14:04:54.550Z,36.90
2022-09-20T14:07:25.748Z,36.75
2022-09-20T14:09:54.077Z,36.00
2022-09-20T14:12:21.769Z,36.30
2022-09-20T14:14:49.807Z,36.79
2022-09-20T14:17:21.860Z,33.88
2022-09-20T14:19:51.791Z,33.97
2022-09-20T14:22:27.106Z,33.35
2022-09-20T14:25:13.859Z,36.35
2022-09-20T14:27:40.787Z,36.09
2022-09-20T14:30:27.600Z,36.94
2022-09-20T14:32:55.996Z,38.38
2022-09-20T14:35:23.169Z,38.73
2022-09-20T14:37:57.254Z,38.09
2022-09-20T14:40:23.897Z,38.90
2022-09-20T14:42:54.651Z,38.08
2022-09-20T14:45:24.560Z,38.80
2022-09-20T14:48:10.669Z,36.93
2022-09-20T14:50:39.425Z,37.25
2022-09-20T14:53:21.929Z,37.49
2022-09-20T14:55:59.927Z,37.36
2022-09-20T14:58:27.209Z,37.42
2022-09-20T15:01:13.525Z,37.47
2022-09-20T15:03:41.870Z,38.25
2022-09-20T15:06:13.402Z,38.02
2022-09-20T15:08:45.479Z,37.49
2022-09-20T15:11:18.422Z,37.38
2022-09-20T15:13:45.504Z,37.43
2022-09-20T15:16:14.510Z,36.23
2022-09-20T15:18:43.158Z,36.87
2022-09-20T15:21:12.412Z,36.03
2022-09-20T15:23:39.951Z,35.42
2022-09-20T15:26:08.826Z,36.48
2022-09-20T15:28:35.486Z,36.88
2022-09-20T15:31:02.398Z,37.39
2022-09-20T15:33:30.884Z,37.71
2022-09-20T15:35:57.362Z,37.81
2022-09-20T15:38:26.747Z,37.18
2022-09-20T15:40:53.718Z,37.64
2022-09-20T15:43:24.153Z,38.05
2022-09-20T15:45:56.210Z,37.39
2022-09-20T15:48:25.658Z,37.11
2022-09-20T15:51:04.221Z,37.21
2022-09-20T15:53:34.145Z,38.05
2022-09-20T15:56:02.604Z,39.00
2022-09-20T15:58:36.658Z,39.68
2022-09-20T16:01:08.292Z,38.46
2022-09-20T16:03:36.487Z,39.38
2022-09-20T16:06:08.233Z,37.71
2022-09-20T16:08:43.817Z,38.37
2022-09-20T16:11:13.675Z,38.03
2022-09-20T16:13:40.696Z,36.90
2022-09-20T16:16:10.005Z,36.69
2022-09-20T16:18:55.551Z,37.10
2022-09-20T16:21:22.255Z,37.09
2022-09-20T16:23:51.570Z,37.56
2022-09-20T16:26:19.669Z,38.74
2022-09-20T16:28:47.643Z,39.67
2022-09-20T16:31:43.665Z,40.35
2022-09-20T16:34:13.250Z,40.70
2022-09-20T16:36:43.349Z,40.35
2022-09-20T16:39:10.591Z,41.83
2022-09-20T16:41:39.081Z,42.50
2022-09-20T16:44:05.454Z,42.91
2022-09-20T16:46:33.409Z,41.99
2022-09-20T16:49:00.825Z,42.43
2022-09-20T16:51:33.281Z,42.56
2022-09-20T16:54:09.555Z,47.74
2022-09-20T16:56:36.131Z,49.93
2022-09-20T16:59:04.816Z,50.95
2022-09-20T17:01:32.031Z,50.00
2022-09-20T17:03:59.272Z,51.70
2022-09-20T17:06:27.279Z,53.45
2022-09-20T17:08:58.861Z,53.85
2022-09-20T17:11:28.534Z,50.51
2022-09-20T17:13:56.008Z,51.49
2022-09-20T17:16:34.201Z,53.29
2022-09-20T17:19:03.019Z,55.40
2022-09-20T17:21:30.241Z,54.51
2022-09-20T17:23:59.567Z,52.33
2022-09-20T17:26:40.408Z,55.09
2022-09-20T17:29:09.863Z,56.30
2022-09-20T17:31:39.108Z,55.81
2022-09-20T17:34:09.516Z,55.34
2022-09-20T17:36:46.433Z,56.71
2022-09-20T17:39:14.535Z,53.54
2022-09-20T17:41:45.980Z,56.90
2022-09-20T17:44:13.451Z,57.02
2022-09-20T17:46:42.452Z,54.86
2022-09-20T17:49:16.903Z,56.94
2022-09-20T17:51:45.841Z,57.34
2022-09-20T17:54:14.007Z,56.66
2022-09-20T17:56:43.658Z,58.49
2022-09-20T17:59:11.790Z,57.69
2022-09-20T18:01:38.845Z,57.61
2022-09-20T18:04:06.788Z,57.09
2022-09-20T18:06:44.928Z,57.61
2022-09-20T18:09:16.527Z,57.65
2022-09-20T18:11:46.372Z,58.67
2022-09-20T18:14:13.460Z,58.46
2022-09-20T18:16:40.711Z,58.32
2022-09-20T18:19:08.354Z,58.56
2022-09-20T18:21:36.617Z,59.35
2022-09-20T18:24:06.302Z,59.04
2022-09-20T18:26:33.091Z,59.62
2022-09-20T18:29:09.491Z,59.81
2022-09-20T18:31:43.045Z,60.37
2022-09-20T18:34:12.167Z,60.56
2022-09-20T18:36:39.886Z,60.73
2022-09-20T18:39:06.702Z,59.97
2022-09-20T18:41:38.115Z,61.18
2022-09-20T18:44:07.549Z,60.62
2022-09-20T18:46:37.766Z,59.78
2022-09-20T18:49:07.899Z,61.89
2022-09-20T18:51:39.196Z,61.74
2022-09-20T18:54:06.592Z,62.98
2022-09-20T18:56:56.540Z,62.84
2022-09-20T18:59:25.197Z,62.39
2022-09-20T19:01:55.028Z,63.83
2022-09-20T19:04:46.160Z,64.09
2022-09-20T19:07:27.979Z,64.17
2022-09-20T19:10:17.112Z,63.75
2022-09-20T19:13:08.951Z,64.32
2022-09-20T19:15:53.885Z,64.67
2022-09-20T19:18:58.669Z,64.17
2022-09-20T19:21:40.423Z,63.93
2022-09-20T19:24:31.615Z,64.85
2022-09-20T19:26:58.452Z,64.74
2022-09-20T19:29:27.207Z,64.49
2022-09-20T19:31:55.548Z,65.68
2022-09-20T19:34:25.360Z,65.23
2022-09-20T19:37:22.801Z,66.04
2022-09-20T19:40:14.644Z,66.73
2022-09-20T19:43:07.459Z,66.77
2022-09-20T19:46:13.353Z,66.98
2022-09-20T19:49:02.422Z,66.36
2022-09-20T19:51:34.977Z,66.54
2022-09-20T19:54:01.694Z,67.90
2022-09-20T19:56:34.531Z,68.39
2022-09-20T19:59:01.269Z,67.63
2022-09-20T20:01:28.106Z,68.03
2022-09-20T20:03:55.844Z,68.23
2022-09-20T20:06:36.720Z,67.67
2022-09-20T20:09:29.558Z,67.98
2022-09-20T20:12:35.595Z,67.71
2022-09-20T20:15:28.517Z,66.46
2022-09-20T20:18:01.699Z,67.10
2022-09-20T20:20:49.285Z,67.38
2022-09-20T20:23:27.926Z,67.74
2022-09-20T20:26:02.825Z,68.56
2022-09-20T20:28:30.137Z,68.66
2022-09-20T20:31:00.124Z,68.82
2022-09-20T20:33:27.043Z,68.32
2022-09-20T20:35:58.398Z,69.71
2022-09-20T20:38:26.455Z,68.12
2022-09-20T20:41:05.675Z,70.40
2022-09-20T20:43:37.358Z,70.76
2022-09-20T20:46:05.561Z,69.76
2022-09-20T20:48:32.700Z,70.68
2022-09-20T20:51:04.115Z,70.89
2022-09-20T20:53:35.967Z,71.87
2022-09-20T20:56:05.659Z,70.86
2022-09-20T20:58:33.087Z,72.56
2022-09-20T21:01:30.264Z,71.04
2022-09-20T21:03:57.705Z,71.17
2022-09-20T21:06:28.767Z,69.93
2022-09-20T21:08:55.353Z,69.18
2022-09-20T21:11:30.065Z,68.79
2022-09-20T21:14:00.237Z,69.21
2022-09-20T21:16:29.706Z,67.50
2022-09-20T21:18:57.279Z,68.97
2022-09-20T21:21:27.985Z,68.60
2022-09-20T21:24:00.779Z,68.69
2022-09-20T21:26:32.001Z,68.77
2022-09-20T21:29:00.644Z,68.87
2022-09-20T21:31:32.759Z,67.80
2022-09-20T21:33:59.998Z,68.24
2022-09-20T21:36:28.643Z,68.93
2022-09-20T21:38:55.877Z,68.40
2022-09-20T21:41:24.881Z,68.69
2022-09-20T21:43:53.841Z,69.48
2022-09-20T21:46:29.118Z,69.60
2022-09-20T21:49:00.718Z,68.43
2022-09-20T21:51:31.147Z,68.96
2022-09-20T21:53:59.547Z,68.96
2022-09-20T21:56:27.681Z,68.63
2022-09-20T21:58:55.016Z,68.01
2022-09-20T22:01:24.023Z,67.36
2022-09-20T22:03:53.909Z,67.99
2022-09-20T22:06:22.388Z,68.17
2022-09-20T22:09:02.945Z,67.60
2022-09-20T22:11:31.900Z,67.35
2022-09-20T22:13:59.147Z,67.43
2022-09-20T22:16:28.913Z,66.87
2022-09-20T22:18:56.253Z,66.55
2022-09-20T22:21:35.299Z,67.25
2022-09-20T22:24:05.705Z,67.23
2022-09-20T22:27:03.296Z,67.19
2022-09-20T22:29:29.809Z,67.44
2022-09-20T22:31:56.343Z,68.14
2022-09-20T22:34:24.238Z,67.53
2022-09-20T22:36:52.044Z,68.70
2022-09-20T22:39:18.614Z,67.52
2022-09-20T22:41:47.739Z,67.84
2022-09-20T22:44:14.272Z,66.99
2022-09-20T22:46:40.807Z,67.66
2022-09-20T22:49:09.030Z,66.98
2022-09-20T22:51:36.585Z,68.05
2022-09-20T22:54:11.502Z,67.12
2022-09-20T22:56:39.596Z,68.17
2022-09-20T22:59:08.718Z,68.11
2022-09-20T23:01:37.859Z,69.25
2022-09-20T23:04:08.099Z,69.02
2022-09-20T23:06:38.387Z,68.86
2022-09-20T23:09:07.905Z,70.24
2022-09-20T23:11:35.564Z,71.22
2022-09-20T23:14:05.059Z,70.71
2022-09-20T23:17:27.798Z,71.27
2022-09-20T23:19:54.287Z,71.00
2022-09-20T23:22:20.769Z,71.50
2022-09-20T23:24:47.264Z,71.57
2022-09-20T23:27:15.421Z,71.21
2022-09-20T23:29:41.933Z,70.81
2022-09-20T23:32:08.399Z,70.93
2022-09-20T23:34:34.883Z,70.91
2022-09-20T23:37:01.372Z,71.34
2022-09-20T23:39:28.036Z,71.06
2022-09-20T23:41:54.504Z,71.02
2022-09-20T23:44:21.186Z,70.89
2022-09-20T23:46:47.708Z,71.14
2022-09-20T23:49:14.197Z,70.41
2022-09-20T23:51:40.665Z,69.37
2022-09-20T23:54:07.311Z,69.15
2022-09-20T23:56:33.979Z,69.92
2022-09-20T23:59:00.523Z,68.65
